createdAt,value
2017-08-15T00:02:16.954Z,69.20
2017-08-15T00:04:45.910Z,69.00
2017-08-15T00:07:14.884Z,69.70
2017-08-15T00:09:43.822Z,69.90
2017-08-15T00:12:12.768Z,69.70
2017-08-15T00:14:41.744Z,69.90
2017-08-15T00:17:10.697Z,69.90
2017-08-15T00:19:39.680Z,69.10
2017-08-15T00:22:08.658Z,69.40
2017-08-15T00:24:37.605Z,70.00
2017-08-15T00:27:06.562Z,69.50
2017-08-15T00:29:35.574Z,69.90
2017-08-15T00:32:04.511Z,69.30
2017-08-15T00:34:33.476Z,69.20
2017-08-15T00:37:02.427Z,69.80
2017-08-15T00:39:31.399Z,69.90
2017-08-15T00:42:01.148Z,69.40
2017-08-15T00:44:30.144Z,70.10
2017-08-15T00:46:59.087Z,70.40
2017-08-15T00:49:28.044Z,70.30
2017-08-15T00:51:57.000Z,70.20
2017-08-15T00:54:25.995Z,71.30
2017-08-15T00:56:55.072Z,71.00
2017-08-15T00:59:24.018Z,71.70
2017-08-15T01:01:52.980Z,72.20
2017-08-15T01:04:22.072Z,72.00
2017-08-15T01:06:51.007Z,72.70
2017-08-15T01:09:19.957Z,72.80
2017-08-15T01:11:48.927Z,72.70
2017-08-15T01:14:18.671Z,73.30
2017-08-15T01:16:47.637Z,73.20
2017-08-15T01:19:16.718Z,73.00
2017-08-15T01:21:45.746Z,73.80
2017-08-15T01:24:14.730Z,73.70
2017-08-15T01:26:43.671Z,73.60
2017-08-15T01:29:12.627Z,73.60
2017-08-15T01:31:41.566Z,74.10
2017-08-15T01:34:10.597Z,74.30
2017-08-15T01:36:39.530Z,73.70
2017-08-15T01:39:08.496Z,74.20
2017-08-15T01:41:37.437Z,74.50
2017-08-15T01:44:06.406Z,75.20
2017-08-15T01:46:35.362Z,75.40
2017-08-15T01:49:04.327Z,75.40
2017-08-15T01:51:33.298Z,74.90
2017-08-15T01:54:02.284Z,75.20
2017-08-15T01:56:31.236Z,75.80
2017-08-15T01:59:00.217Z,75.90
2017-08-15T02:01:29.171Z,75.40
2017-08-15T02:03:58.175Z,75.90
2017-08-15T02:06:27.885Z,75.80
2017-08-15T02:08:56.872Z,75.80
2017-08-15T02:11:26.604Z,76.40
2017-08-15T02:13:55.578Z,76.30
2017-08-15T02:16:25.280Z,76.90
2017-08-15T02:18:55.012Z,77.00
2017-08-15T02:21:23.968Z,77.00
2017-08-15T02:23:53.060Z,77.00
2017-08-15T02:26:22.068Z,77.60
2017-08-15T02:28:51.037Z,77.90
2017-08-15T02:31:20.037Z,77.50
2017-08-15T02:33:49.017Z,77.20
2017-08-15T02:36:17.997Z,77.90
2017-08-15T02:38:46.977Z,78.30
2017-08-15T02:41:15.921Z,78.20
2017-08-15T02:43:45.649Z,77.60
2017-08-15T02:46:14.618Z,77.60
2017-08-15T02:48:44.376Z,78.30
2017-08-15T02:51:13.332Z,77.40
2017-08-15T02:53:43.068Z,77.90
2017-08-15T02:56:12.244Z,77.80
2017-08-15T02:58:41.229Z,77.00
2017-08-15T03:01:10.977Z,77.60
2017-08-15T03:03:39.918Z,77.50
2017-08-15T03:06:08.912Z,77.40
2017-08-15T03:08:37.858Z,78.10
2017-08-15T03:11:06.815Z,77.90
2017-08-15T03:13:35.763Z,78.00
2017-08-15T03:16:04.730Z,78.10
2017-08-15T03:18:33.691Z,78.10
2017-08-15T03:21:02.666Z,78.00
2017-08-15T03:23:31.647Z,78.10
2017-08-15T03:26:00.625Z,78.40
2017-08-15T03:28:30.397Z,78.90
2017-08-15T03:30:59.345Z,78.80
2017-08-15T03:33:29.095Z,78.90
2017-08-15T03:35:58.073Z,79.00
2017-08-15T03:38:27.012Z,78.40
2017-08-15T03:40:55.997Z,79.10
2017-08-15T03:43:25.023Z,79.30
2017-08-15T03:45:54.004Z,79.30
2017-08-15T03:48:22.945Z,79.50
2017-08-15T03:50:51.933Z,79.30
2017-08-15T03:53:20.888Z,79.10
2017-08-15T03:55:50.626Z,80.00
2017-08-15T03:58:19.577Z,80.00
2017-08-15T04:00:48.558Z,79.80
2017-08-15T04:03:17.512Z,80.10
2017-08-15T04:05:46.504Z,80.00
2017-08-15T04:08:15.466Z,80.00
2017-08-15T04:10:45.180Z,80.20
2017-08-15T04:13:14.153Z,80.10
2017-08-15T04:15:43.875Z,80.50
2017-08-15T04:18:13.619Z,80.60
2017-08-15T04:20:42.614Z,80.40
2017-08-15T04:23:11.551Z,80.20
2017-08-15T04:25:40.524Z,79.90
2017-08-15T04:28:09.491Z,80.00
2017-08-15T04:30:38.450Z,79.70
2017-08-15T04:33:07.425Z,79.80
2017-08-15T04:35:37.189Z,80.60
2017-08-15T04:38:06.150Z,80.10
2017-08-15T04:40:35.102Z,80.30
2017-08-15T04:43:04.076Z,80.50
2017-08-15T04:45:33.080Z,80.70
2017-08-15T04:48:02.150Z,80.40
2017-08-15T04:50:31.114Z,80.50
2017-08-15T04:53:00.087Z,80.80
2017-08-15T04:55:29.056Z,80.40
2017-08-15T04:57:58.005Z,80.50
2017-08-15T05:00:26.982Z,81.20
2017-08-15T05:02:55.936Z,81.40
2017-08-15T05:05:24.909Z,81.50
2017-08-15T05:07:53.870Z,81.60
2017-08-15T05:10:22.961Z,80.70
2017-08-15T05:12:51.918Z,80.10
2017-08-15T05:15:21.653Z,80.50
2017-08-15T05:17:50.601Z,80.40
2017-08-15T05:20:19.594Z,79.60
2017-08-15T05:22:48.552Z,79.60
2017-08-15T05:25:17.549Z,79.10
2017-08-15T05:27:46.584Z,78.10
2017-08-15T05:30:16.353Z,76.60
2017-08-15T05:32:45.316Z,76.50
2017-08-15T05:35:14.393Z,77.10
2017-08-15T05:37:43.335Z,76.50
2017-08-15T05:40:12.313Z,76.50
2017-08-15T05:42:41.263Z,76.20
2017-08-15T05:45:10.368Z,75.90
2017-08-15T05:47:39.310Z,75.90
2017-08-15T05:50:08.303Z,75.20
2017-08-15T05:52:37.277Z,75.20
2017-08-15T05:55:06.240Z,75.20
2017-08-15T05:57:35.187Z,74.80
2017-08-15T06:00:04.163Z,74.70
2017-08-15T06:02:33.104Z,74.80
2017-08-15T06:05:02.214Z,74.50
2017-08-15T06:07:31.494Z,74.30
2017-08-15T06:10:00.467Z,74.30
2017-08-15T06:12:29.432Z,74.20
2017-08-15T06:14:58.405Z,74.70
2017-08-15T06:17:27.861Z,74.60
2017-08-15T06:19:57.393Z,74.10
2017-08-15T06:22:26.410Z,74.50
2017-08-15T06:24:55.449Z,73.20
2017-08-15T06:27:25.006Z,72.70
2017-08-15T06:29:54.032Z,73.00
2017-08-15T06:32:23.005Z,72.90
2017-08-15T06:34:52.046Z,73.30
2017-08-15T06:37:21.669Z,74.20
2017-08-15T06:39:51.351Z,70.80
2017-08-15T06:42:20.550Z,71.90
2017-08-15T06:44:50.206Z,72.00
2017-08-15T06:47:19.185Z,72.10
2017-08-15T06:49:48.292Z,71.70
2017-08-15T06:52:18.287Z,71.00
2017-08-15T06:54:48.095Z,70.80
2017-08-15T06:57:17.952Z,69.90
2017-08-15T06:59:47.105Z,70.00
2017-08-15T07:02:16.173Z,70.10
2017-08-15T07:04:45.164Z,70.00
2017-08-15T07:07:16.298Z,70.60
2017-08-15T07:09:46.072Z,69.70
2017-08-15T07:12:15.832Z,70.40
2017-08-15T07:14:44.842Z,69.50
2017-08-15T07:17:13.814Z,68.40
2017-08-15T07:19:43.665Z,67.90
2017-08-15T07:22:12.631Z,68.30
2017-08-15T07:24:42.398Z,68.30
2017-08-15T07:27:11.373Z,68.30
2017-08-15T07:29:40.381Z,67.20
2017-08-15T07:32:11.119Z,66.60
2017-08-15T07:34:42.737Z,67.20
2017-08-15T07:37:13.160Z,67.10
2017-08-15T07:39:42.119Z,66.70
2017-08-15T07:42:11.124Z,67.10
2017-08-15T07:44:40.674Z,66.10
2017-08-15T07:47:09.633Z,67.30
2017-08-15T07:49:38.642Z,64.50
2017-08-15T07:52:07.650Z,63.70
2017-08-15T07:54:36.721Z,62.50
2017-08-15T07:57:05.730Z,62.90
2017-08-15T07:59:34.715Z,63.10
2017-08-15T08:02:04.448Z,62.10
2017-08-15T08:04:34.336Z,64.20
2017-08-15T08:07:03.369Z,61.20
2017-08-15T08:09:32.320Z,63.20
2017-08-15T08:12:01.307Z,59.20
2017-08-15T08:14:31.500Z,62.50
2017-08-15T08:17:00.997Z,62.70
2017-08-15T08:19:29.969Z,61.00
2017-08-15T08:22:00.741Z,62.10
2017-08-15T08:24:29.709Z,63.30
2017-08-15T08:27:00.371Z,63.50
2017-08-15T08:29:29.344Z,63.40
2017-08-15T08:31:58.338Z,64.60
2017-08-15T08:34:27.827Z,64.60
2017-08-15T08:36:57.569Z,64.70
2017-08-15T08:39:27.216Z,63.50
2017-08-15T08:41:56.200Z,63.70
2017-08-15T08:44:25.164Z,62.50
2017-08-15T08:46:54.671Z,61.90
2017-08-15T08:49:23.644Z,59.90
2017-08-15T08:51:53.098Z,59.70
2017-08-15T08:54:24.096Z,59.70
2017-08-15T08:56:56.491Z,61.40
2017-08-15T08:59:25.458Z,59.90
2017-08-15T09:01:55.206Z,59.70
2017-08-15T09:04:25.009Z,59.70
2017-08-15T09:06:53.961Z,59.10
2017-08-15T09:09:23.718Z,59.60
2017-08-15T09:11:54.344Z,60.60
2017-08-15T09:14:23.983Z,60.40
2017-08-15T09:16:53.708Z,61.60
2017-08-15T09:19:23.439Z,60.70
2017-08-15T09:21:52.402Z,60.70
2017-08-15T09:24:22.152Z,61.50
2017-08-15T09:26:51.129Z,61.40
2017-08-15T09:29:20.112Z,60.80
2017-08-15T09:31:49.166Z,59.90
2017-08-15T09:34:18.133Z,60.00
2017-08-15T09:36:47.124Z,59.50
2017-08-15T09:39:16.086Z,58.30
2017-08-15T09:41:45.035Z,58.30
2017-08-15T09:44:14.076Z,59.10
2017-08-15T09:46:43.029Z,60.90
2017-08-15T09:49:11.983Z,61.90
2017-08-15T09:51:40.945Z,61.70
2017-08-15T09:54:10.119Z,61.50
2017-08-15T09:56:39.061Z,62.70
2017-08-15T09:59:09.230Z,60.50
2017-08-15T10:01:38.991Z,60.20
2017-08-15T10:04:08.720Z,59.90
2017-08-15T10:06:37.693Z,59.10
2017-08-15T10:09:06.678Z,58.80
2017-08-15T10:11:35.653Z,61.10
2017-08-15T10:14:04.608Z,58.30
2017-08-15T10:16:33.620Z,59.30
2017-08-15T10:19:02.577Z,60.10
2017-08-15T10:21:31.557Z,59.00
2017-08-15T10:24:00.576Z,59.70
2017-08-15T10:26:30.695Z,57.80
2017-08-15T10:29:00.349Z,56.40
2017-08-15T10:31:29.338Z,56.60
2017-08-15T10:33:58.293Z,55.30
2017-08-15T10:36:28.033Z,55.70
2017-08-15T10:38:56.985Z,55.60
2017-08-15T10:41:25.970Z,53.70
2017-08-15T10:43:56.379Z,53.30
2017-08-15T10:46:25.339Z,54.40
2017-08-15T10:48:54.333Z,56.00
2017-08-15T10:51:23.343Z,55.80
2017-08-15T10:53:53.251Z,57.20
2017-08-15T10:56:42.940Z,57.00
2017-08-15T10:59:12.090Z,56.20
2017-08-15T11:01:41.071Z,55.00
2017-08-15T11:04:10.781Z,53.00
2017-08-15T11:06:40.532Z,52.80
2017-08-15T11:09:09.484Z,52.80
2017-08-15T11:11:38.444Z,52.50
2017-08-15T11:14:07.407Z,51.70
2017-08-15T11:16:36.386Z,51.30
2017-08-15T11:19:05.337Z,50.40
2017-08-15T11:21:34.313Z,51.90
2017-08-15T11:24:03.332Z,48.80
2017-08-15T11:26:33.919Z,49.50
2017-08-15T11:29:04.592Z,49.50
2017-08-15T11:31:34.349Z,51.20
2017-08-15T11:34:03.298Z,51.30
2017-08-15T11:36:33.502Z,51.40
2017-08-15T11:39:02.527Z,50.70
2017-08-15T11:41:31.491Z,48.70
2017-08-15T11:44:00.460Z,49.80
2017-08-15T11:46:29.427Z,49.00
2017-08-15T11:48:58.410Z,50.00
2017-08-15T11:51:27.384Z,49.20
2017-08-15T11:53:56.478Z,50.20
2017-08-15T11:56:25.448Z,49.20
2017-08-15T11:58:54.416Z,50.50
2017-08-15T12:01:23.408Z,49.60
2017-08-15T12:03:52.370Z,50.00
2017-08-15T12:06:21.328Z,52.40
2017-08-15T12:08:50.288Z,51.40
2017-08-15T12:11:20.112Z,52.20
2017-08-15T12:13:49.077Z,48.60
2017-08-15T12:16:18.692Z,47.50
2017-08-15T12:18:47.633Z,48.00
2017-08-15T12:21:17.550Z,46.30
2017-08-15T12:23:46.523Z,46.60
2017-08-15T12:26:16.261Z,45.90
2017-08-15T12:28:45.239Z,45.90
2017-08-15T12:31:14.955Z,46.40
2017-08-15T12:33:43.897Z,47.10
2017-08-15T12:36:12.887Z,47.00
2017-08-15T12:38:41.888Z,45.80
2017-08-15T12:41:10.865Z,46.60
2017-08-15T12:43:39.824Z,45.30
2017-08-15T12:46:08.803Z,45.00
2017-08-15T12:48:37.773Z,44.50
2017-08-15T12:51:06.759Z,44.70
2017-08-15T12:53:35.837Z,45.90
2017-08-15T12:56:04.786Z,44.30
2017-08-15T12:58:33.746Z,42.50
2017-08-15T13:01:03.513Z,41.50
2017-08-15T13:03:32.465Z,41.40
2017-08-15T13:06:01.436Z,41.00
2017-08-15T13:08:31.173Z,42.60
2017-08-15T13:11:00.151Z,42.60
2017-08-15T13:13:29.892Z,42.30
2017-08-15T13:15:58.872Z,42.30
2017-08-15T13:18:27.803Z,43.10
2017-08-15T13:20:56.750Z,46.30
2017-08-15T13:23:25.787Z,44.00
2017-08-15T13:25:54.733Z,42.30
2017-08-15T13:28:23.705Z,40.00
2017-08-15T13:30:52.740Z,41.40
2017-08-15T13:33:21.838Z,41.70
2017-08-15T13:35:50.804Z,43.90
2017-08-15T13:38:19.836Z,44.50
2017-08-15T13:40:48.792Z,44.40
2017-08-15T13:43:17.809Z,45.40
2017-08-15T13:45:46.753Z,44.90
2017-08-15T13:48:15.840Z,44.50
2017-08-15T13:50:46.203Z,47.20
2017-08-15T13:53:15.188Z,47.10
2017-08-15T13:55:44.124Z,44.10
2017-08-15T13:58:13.098Z,45.70
2017-08-15T14:00:42.100Z,46.50
2017-08-15T14:03:11.075Z,46.80
2017-08-15T14:05:40.014Z,47.10
2017-08-15T14:08:09.108Z,44.20
2017-08-15T14:10:38.818Z,42.70
2017-08-15T14:13:07.809Z,43.10
2017-08-15T14:15:37.512Z,40.80
2017-08-15T14:18:06.545Z,40.80
2017-08-15T14:23:10.640Z,39.50
2017-08-15T14:25:40.358Z,38.20
2017-08-15T14:28:10.100Z,36.40
2017-08-15T14:30:39.033Z,36.30
2017-08-15T14:33:08.021Z,31.90
2017-08-15T14:35:36.973Z,30.80
2017-08-15T14:38:05.964Z,29.80
2017-08-15T14:40:34.919Z,29.50
2017-08-15T14:43:04.681Z,33.20
2017-08-15T14:45:33.617Z,33.20
2017-08-15T14:48:04.107Z,37.50
2017-08-15T14:50:33.082Z,37.50
2017-08-15T14:53:02.073Z,38.90
2017-08-15T14:55:31.024Z,40.20
2017-08-15T14:58:00.858Z,40.80
2017-08-15T15:00:29.802Z,40.80
2017-08-15T15:02:59.545Z,41.30
2017-08-15T15:05:28.501Z,42.50
2017-08-15T15:07:57.455Z,43.80
2017-08-15T15:10:26.415Z,44.70
2017-08-15T15:12:55.376Z,45.30
2017-08-15T15:15:24.384Z,46.60
2017-08-15T15:17:53.356Z,46.90
2017-08-15T15:20:22.315Z,46.80
2017-08-15T15:22:51.279Z,48.10
2017-08-15T15:25:20.287Z,48.70
2017-08-15T15:27:49.267Z,48.90
2017-08-15T15:30:19.126Z,49.70
2017-08-15T15:32:48.140Z,50.00
2017-08-15T15:35:17.092Z,51.40
2017-08-15T15:37:46.048Z,55.10
2017-08-15T15:40:15.848Z,63.40
2017-08-15T15:42:45.584Z,65.80
2017-08-15T15:45:15.429Z,64.90
2017-08-15T15:47:44.702Z,62.00
2017-08-15T15:50:13.648Z,61.90
2017-08-15T15:52:42.650Z,64.40
2017-08-15T15:55:12.377Z,60.70
2017-08-15T15:57:42.135Z,62.80
2017-08-15T16:00:12.157Z,62.70
2017-08-15T16:02:41.124Z,62.20
2017-08-15T16:05:10.075Z,59.80
2017-08-15T16:07:39.858Z,61.50
2017-08-15T16:10:09.688Z,61.40
2017-08-15T16:12:39.635Z,61.60
2017-08-15T16:15:08.609Z,60.70
2017-08-15T16:17:38.350Z,62.70
2017-08-15T16:20:08.164Z,62.50
2017-08-15T16:22:37.130Z,64.50
2017-08-15T16:25:06.076Z,63.00
2017-08-15T16:27:35.045Z,64.70
2017-08-15T16:30:03.996Z,68.20
2017-08-15T16:32:33.767Z,67.90
2017-08-15T16:35:02.708Z,67.80
2017-08-15T16:37:31.662Z,65.30
2017-08-15T16:40:00.658Z,62.90
2017-08-15T16:42:29.644Z,65.20
2017-08-15T16:44:58.580Z,67.20
2017-08-15T16:47:27.559Z,68.00
2017-08-15T16:49:57.268Z,76.70
2017-08-15T16:52:27.028Z,76.60
2017-08-15T16:54:55.992Z,76.60
2017-08-15T16:57:24.940Z,81.20
2017-08-15T16:59:53.932Z,86.00
2017-08-15T17:02:22.880Z,86.50
2017-08-15T17:04:51.854Z,86.60
2017-08-15T17:07:20.808Z,88.90
2017-08-15T17:09:49.788Z,88.70
2017-08-15T17:12:18.805Z,89.70
2017-08-15T17:14:48.564Z,90.30
2017-08-15T17:17:17.508Z,90.30
2017-08-15T17:19:47.233Z,90.70
2017-08-15T17:22:17.034Z,90.10
2017-08-15T17:24:46.786Z,90.50
2017-08-15T17:27:15.754Z,90.50
2017-08-15T17:29:44.721Z,90.70
2017-08-15T17:32:13.671Z,91.00
2017-08-15T17:34:42.657Z,90.60
2017-08-15T17:37:11.627Z,90.30
2017-08-15T17:39:40.606Z,90.60
2017-08-15T17:42:09.903Z,90.80
2017-08-15T17:44:38.901Z,88.30
2017-08-15T17:47:07.857Z,90.10
2017-08-15T17:49:36.829Z,90.60
2017-08-15T17:52:05.836Z,90.10
2017-08-15T17:54:34.822Z,90.40
2017-08-15T17:57:03.776Z,90.70
2017-08-15T17:59:36.560Z,90.50
2017-08-15T18:02:08.995Z,90.30
2017-08-15T18:04:38.744Z,91.40
2017-08-15T18:07:07.714Z,91.00
2017-08-15T18:09:36.705Z,91.50
2017-08-15T18:12:05.681Z,91.40
2017-08-15T18:14:34.646Z,91.10
2017-08-15T18:17:03.635Z,91.30
2017-08-15T18:19:32.602Z,91.00
2017-08-15T18:22:01.548Z,91.00
2017-08-15T18:24:31.293Z,92.60
2017-08-15T18:27:00.272Z,92.20
2017-08-15T18:29:29.261Z,92.30
2017-08-15T18:31:58.216Z,90.60
2017-08-15T18:34:27.214Z,91.40
2017-08-15T18:36:56.954Z,92.30
2017-08-15T18:39:25.935Z,92.00
2017-08-15T18:41:55.743Z,92.20
2017-08-15T18:44:25.497Z,92.10
2017-08-15T18:46:54.508Z,92.10
2017-08-15T18:49:23.501Z,92.00
2017-08-15T18:51:52.512Z,92.50
2017-08-15T18:54:21.521Z,92.40
2017-08-15T18:56:50.494Z,92.80
2017-08-15T18:59:19.469Z,93.30
2017-08-15T19:01:48.480Z,93.40
2017-08-15T19:04:17.449Z,93.00
2017-08-15T19:06:46.465Z,92.90
2017-08-15T19:09:15.515Z,92.60
2017-08-15T19:11:44.557Z,92.60
2017-08-15T19:14:13.632Z,92.50
2017-08-15T19:16:42.685Z,92.40
2017-08-15T19:19:11.744Z,92.30
2017-08-15T19:21:40.716Z,91.80
2017-08-15T19:24:09.809Z,91.90
2017-08-15T19:26:38.772Z,91.70
2017-08-15T19:29:07.791Z,91.90
2017-08-15T19:31:36.796Z,91.80
2017-08-15T19:34:05.804Z,91.40
2017-08-15T19:36:35.582Z,91.40
2017-08-15T19:39:04.691Z,91.40
2017-08-15T19:41:33.746Z,91.30
2017-08-15T19:44:02.705Z,91.30
2017-08-15T19:46:31.725Z,91.20
2017-08-15T19:49:00.727Z,91.50
2017-08-15T19:51:29.774Z,91.20
2017-08-15T19:53:59.539Z,91.90
2017-08-15T19:56:28.598Z,91.60
2017-08-15T19:58:57.573Z,91.30
2017-08-15T20:01:26.575Z,91.30
2017-08-15T20:03:55.522Z,91.00
2017-08-15T20:06:24.533Z,90.90
2017-08-15T20:08:53.492Z,90.90
2017-08-15T20:11:22.491Z,90.80
2017-08-15T20:13:51.469Z,91.00
2017-08-15T20:16:20.479Z,91.00
2017-08-15T20:18:49.454Z,90.90
2017-08-15T20:21:18.420Z,90.80
2017-08-15T20:23:47.414Z,91.00
2017-08-15T20:26:16.492Z,90.70
2017-08-15T20:28:46.196Z,91.40
2017-08-15T20:31:15.181Z,91.00
2017-08-15T20:33:44.132Z,91.20
2017-08-15T20:36:13.105Z,91.00
2017-08-15T20:38:42.947Z,90.90
2017-08-15T20:41:11.893Z,91.30
2017-08-15T20:43:40.879Z,91.10
2017-08-15T20:46:09.849Z,90.80
2017-08-15T20:48:38.838Z,90.70
2017-08-15T20:51:07.791Z,90.70
2017-08-15T20:53:36.762Z,90.70
2017-08-15T20:56:05.705Z,90.80
2017-08-15T20:58:34.670Z,91.10
2017-08-15T21:01:03.652Z,90.90
2017-08-15T21:03:32.634Z,90.70
2017-08-15T21:06:01.613Z,90.60
2017-08-15T21:08:30.586Z,90.40
2017-08-15T21:11:00.319Z,90.90
2017-08-15T21:13:29.286Z,90.90
2017-08-15T21:15:59.006Z,90.80
2017-08-15T21:18:28.797Z,90.80
2017-08-15T21:20:57.763Z,90.80
2017-08-15T21:23:27.469Z,90.90
2017-08-15T21:25:56.457Z,90.90
2017-08-15T21:28:25.446Z,91.00
2017-08-15T21:30:54.403Z,90.70
2017-08-15T21:33:38.379Z,90.90
2017-08-15T21:36:07.362Z,90.90
2017-08-15T21:38:36.338Z,91.00
2017-08-15T21:41:05.303Z,91.00
2017-08-15T21:43:35.028Z,90.90
2017-08-15T21:46:04.054Z,90.80
2017-08-15T21:48:33.022Z,90.90
2017-08-15T21:51:01.965Z,90.70
2017-08-15T21:53:30.978Z,90.80
2017-08-15T21:55:59.948Z,90.90
2017-08-15T21:58:28.893Z,90.60
2017-08-15T22:01:16.607Z,90.90
2017-08-15T22:03:45.560Z,90.90
2017-08-15T22:06:14.533Z,90.70
2017-08-15T22:08:43.517Z,90.80
2017-08-15T22:11:12.486Z,91.10
2017-08-15T22:13:41.463Z,91.10
2017-08-15T22:16:10.401Z,91.00
2017-08-15T22:18:39.381Z,91.00
2017-08-15T22:21:08.581Z,91.10
2017-08-15T22:23:37.528Z,91.10
2017-08-15T22:26:07.309Z,91.10
2017-08-15T22:28:36.304Z,91.10
2017-08-15T22:31:05.286Z,91.40
2017-08-15T22:33:34.262Z,91.50
2017-08-15T22:36:03.257Z,91.40
2017-08-15T22:38:32.221Z,91.00
2017-08-15T22:41:01.209Z,91.10
2017-08-15T22:43:30.170Z,90.90
2017-08-15T22:45:59.913Z,91.20
2017-08-15T22:48:28.874Z,90.90
2017-08-15T22:50:58.637Z,90.80
2017-08-15T22:53:27.616Z,90.80
2017-08-15T22:55:56.591Z,90.90
2017-08-15T22:58:25.600Z,91.20
2017-08-15T23:00:54.587Z,91.10
2017-08-15T23:03:23.540Z,91.00
2017-08-15T23:05:52.534Z,91.20
2017-08-15T23:08:22.291Z,91.50
2017-08-15T23:10:51.250Z,91.40
2017-08-15T23:13:20.247Z,91.20
2017-08-15T23:15:49.196Z,91.20
2017-08-15T23:18:18.188Z,91.20
2017-08-15T23:20:47.144Z,91.20
2017-08-15T23:23:18.940Z,91.20
2017-08-15T23:25:51.143Z,91.40
2017-08-15T23:28:20.886Z,91.40
2017-08-15T23:30:49.853Z,91.40
2017-08-15T23:33:18.842Z,91.60
2017-08-15T23:35:47.813Z,91.70
2017-08-15T23:38:17.573Z,91.70
2017-08-15T23:40:46.542Z,91.70
2017-08-15T23:43:15.520Z,91.70
2017-08-15T23:45:45.244Z,91.20
2017-08-15T23:48:14.255Z,91.10
2017-08-15T23:50:43.224Z,91.20
2017-08-15T23:53:12.189Z,91.20
2017-08-15T23:55:41.963Z,91.40
2017-08-15T23:58:10.954Z,91.40
